Waco, NC (28169)

8:51 AM EST on February 22, 2017 (GMT -0500)
Shelby | | Change Station

Elev 0 ft 35.32 °N, 81.50 °W | Updated 2 minutes ago

Overcast
Overcast
53.4 °F
Feels Like 53.4 °F
N
0.6
Wind Variable Wind from East
Gusts 3.1 mph

Today
High -- | Low -- °F
--% Chance of Precip.
Yesterday
High -- | Low -- °F
Precip. -- in
Pressure 30.02 in
Visibility 7.0 miles
Clouds Mostly Cloudy 1500 ft
Mostly Cloudy 2300 ft
Overcast 3600 ft
Dew Point 49 °F
Humidity 85%
Rainfall 0.01 in
Snow Depth Not available.
7:03 AM 6:14 PM
Waning Crescent, 17% visible
METAR KEHO 221335Z AUTO 06004KT 7SM BKN015 BKN023 OVC036 11/11 A3002 RMK AO2 T01070107
Pressure 30.02 in
Visibility 7.0 miles
Clouds Mostly Cloudy 1500 ft
Mostly Cloudy 2300 ft
Overcast 3600 ft
Dew Point 49 °F
Humidity 85%
Rainfall 0.01 in
Snow Depth Not available.
7:03 AM 6:14 PM
Waning Crescent, 17% visible
METAR KEHO 221335Z AUTO 06004KT 7SM BKN015 BKN023 OVC036 11/11 A3002 RMK AO2 T01070107

Get Your Daily Forecast Email!

Thanks for signing up!

Be on the lookout for a verification email in your inbox.

You'll start receiving the daily forecast at 8 AM.

×

10-Day Weather Forecast

Almanac

Astronomy

Feb. 22, 2017 Rise Set
Actual Time
Civil Twilight
Nautical Twilight
Astronomical Twilight
Moon
Length of Visible Light
Length of Day
Tomorrow will be .
, % of the Moon is Illuminated

Today's Extremes

State Highs State Lows

Community

WunderPhotos

Upload Photos

1,962,540 photos uploaded!

WunderBlog® & News

Nearby

Air Quality

  Air Quality AQ Index Pollutant
Not available.

Snow Depth

Station Depth Elevation

Earthquake Activity

City Distance Mag. Time & Date
Minimum magnitude displayed is 2.5.

Coastal Water Temperatures

Place Temperature

Stations

Nearby Weather Stations

Station Location Temp. Windchill Dew Point Humidity Wind Precip. Elev Updated Type
                   

Watches & Warnings

There are currently no watches in effect.